^^
No Wait Weather (KNEBELLE1) Station Historical Data
Daily Summary for May 6, 2019 Units:  English    Metric   Both
Daily Weekly Monthly Yearly Custom
  High: Low: Average:
Temperature: 64.2 °F 49.8 °F 55.8 °F
Dew Point: 54.15 °F 41.63 °F 48.7 °F
Humidity: 94% 54% 78%
Wind Speed: 10mph 0mph 1.2mph
Wind Gust: 12mph - -
Wind- - NE
Pressure: 29.93 in 29.65 in -
Precipitation: 0.36 in    
Historical Graphs
 
 
Tabular Data for May 6, 2019
Time Temperature Dew Point Pressure Wind Wind Speed Wind Gust Humidity Rainfall Rate (Hourly) solar
00:04 60.9 °F 51.43 °F 29.65 in Calm     71% 0 in WeatherCatV3.04B91 W/m2
00:09 60.7 °F 52.36 °F 29.65 in Calm     74% 0 in WeatherCatV3.04B91 W/m2
00:14 60.4 °F 52.8 °F 29.66 in Calm   3 mph 76% 0 in WeatherCatV3.04B91 W/m2
00:19 60.1 °F 53.21 °F 29.66 in Calm   2 mph 78% 0 in WeatherCatV3.04B91 W/m2
00:24 59.9 °F 53.71 °F 29.66 in Calm     80% 0 in WeatherCatV3.04B91 W/m2
00:29 59.8 °F 53.95 °F 29.65 in Calm     81% 0 in WeatherCatV3.04B91 W/m2
00:34 59.5 °F 53.66 °F 29.65 in Calm     81% 0 in WeatherCatV3.04B91 W/m2
00:39 59.3 °F 53.47 °F 29.65 in Calm     81% 0 in WeatherCatV3.04B91 W/m2
00:44 59.2 °F 53.03 °F 29.65 in Calm     80% 0 in WeatherCatV3.04B91 W/m2
00:49 59.3 °F 53.13 °F 29.65 in Calm     80% 0 in WeatherCatV3.04B91 W/m2
00:54 59.3 °F 53.13 °F 29.65 in Calm     80% 0 in WeatherCatV3.04B91 W/m2
00:59 59.3 °F 53.47 °F 29.66 in Calm     81% 0 in WeatherCatV3.04B91 W/m2
01:04 59.3 °F 53.47 °F 29.66 in Calm     81% 0 in WeatherCatV3.04B91 W/m2
01:09 59.2 °F 53.37 °F 29.66 in Calm     81% 0 in WeatherCatV3.04B91 W/m2
01:14 59 °F 53.51 °F 29.66 in Calm     82% 0 in WeatherCatV3.04B91 W/m2
01:19 58.9 °F 53.41 °F 29.66 in Calm     82% 0 in WeatherCatV3.04B91 W/m2
01:24 58.7 °F 53.55 °F 29.66 in Calm     83% 0 in WeatherCatV3.04B91 W/m2
01:29 58.6 °F 53.78 °F 29.66 in Calm     84% 0 in WeatherCatV3.04B91 W/m2
01:34 58.4 °F 53.91 °F 29.66 in Calm     85% 0 in WeatherCatV3.04B91 W/m2
01:39 58.3 °F 54.13 °F 29.66 in Calm     86% 0 in WeatherCatV3.04B91 W/m2
01:44 58.1 °F 53.93 °F 29.66 in Calm     86% 0 in WeatherCatV3.04B91 W/m2
01:49 58 °F 54.15 °F 29.66 in Calm     87% 0 in WeatherCatV3.04B91 W/m2
01:54 58 °F 54.15 °F 29.66 in Calm     87% 0 in WeatherCatV3.04B91 W/m2
01:59 57.8 °F 53.95 °F 29.66 in Calm     87% 0 in WeatherCatV3.04B91 W/m2
02:04 57.6 °F 53.76 °F 29.66 in Calm     87% 0 in WeatherCatV3.04B91 W/m2
02:09 57.5 °F 53.66 °F 29.66 in Calm     87% 0 in WeatherCatV3.04B91 W/m2
02:14 57.3 °F 53.77 °F 29.66 in Calm     88% 0 in WeatherCatV3.04B91 W/m2
02:19 57.3 °F 53.77 °F 29.66 in Calm     88% 0 in WeatherCatV3.04B91 W/m2
02:24 57.2 °F 53.68 °F 29.66 in Calm     88% 0 in WeatherCatV3.04B91 W/m2
02:29 57 °F 53.48 °F 29.67 in Calm     88% 0 in WeatherCatV3.04B91 W/m2
02:34 57 °F 53.48 °F 29.67 in Calm     88% 0 in WeatherCatV3.04B91 W/m2
02:39 57 °F 53.48 °F 29.67 in Calm     88% 0 in WeatherCatV3.04B91 W/m2
02:44 57 °F 53.79 °F 29.69 in Calm     89% 0 in WeatherCatV3.04B91 W/m2
02:49 56.9 °F 53.69 °F 29.69 in Calm     89% 0 in WeatherCatV3.04B91 W/m2
02:54 56.7 °F 53.49 °F 29.69 in Calm     89% 0 in WeatherCatV3.04B91 W/m2
02:59 56.7 °F 53.49 °F 29.71 in Calm     89% 0 in WeatherCatV3.04B91 W/m2
03:04 56.6 °F 53.39 °F 29.71 in Calm     89% 0 in WeatherCatV3.04B91 W/m2
03:09 56.6 °F 53.7 °F 29.71 in Calm     90% 0 in WeatherCatV3.04B91 W/m2
03:14 56.5 °F 53.6 °F 29.71 in Calm     90% 0 in WeatherCatV3.04B91 W/m2
03:19 56.2 °F 53.3 °F 29.71 in Calm     90% 0 in WeatherCatV3.04B91 W/m2
03:24 56.2 °F 53.3 °F 29.71 in Calm   3 mph 90% 0 in WeatherCatV3.04B91 W/m2
03:29 56 °F 53.11 °F 29.72 in Calm   2 mph 90% 0 in WeatherCatV3.04B91 W/m2
03:34 56 °F 53.11 °F 29.72 in Calm     90% 0 in WeatherCatV3.04B91 W/m2
03:39 56 °F 53.11 °F 29.72 in Calm     90% 0 in WeatherCatV3.04B91 W/m2
03:44 55.9 °F 53.01 °F 29.73 in Calm     90% 0 in WeatherCatV3.04B91 W/m2
03:49 55.9 °F 53.01 °F 29.73 in Calm     90% 0 in WeatherCatV3.04B91 W/m2
03:54 55.7 °F 52.81 °F 29.73 in Calm   1 mph 90% 0 in WeatherCatV3.04B91 W/m2
03:59 55.7 °F 52.81 °F 29.74 in Calm     90% 0 in WeatherCatV3.04B91 W/m2
04:04 55.7 °F 52.81 °F 29.74 in Calm     90% 0 in WeatherCatV3.04B91 W/m2
04:09 55.6 °F 52.71 °F 29.74 in Calm     90% 0 in WeatherCatV3.04B91 W/m2
04:14 55.6 °F 52.71 °F 29.76 in Calm   1 mph 90% 0 in WeatherCatV3.04B91 W/m2
04:19 55.6 °F 52.71 °F 29.76 in Calm     90% 0 in WeatherCatV3.04B91 W/m2
04:24 55.4 °F 52.51 °F 29.76 in Calm   1 mph 90% 0 in WeatherCatV3.04B91 W/m2
04:29 55.4 °F 52.51 °F 29.76 in Calm     90% 0 in WeatherCatV3.04B91 W/m2
04:34 55.1 °F 52.22 °F 29.76 in Calm   5 mph 90% 0 in WeatherCatV3.04B91 W/m2
04:39 55 °F 52.12 °F 29.76 in Calm   6 mph 90% 0 in WeatherCatV3.04B91 W/m2
04:44 54.7 °F 51.21 °F 29.75 in Calm   5 mph 88% 0 in WeatherCatV3.04B91 W/m2
04:49 54.2 °F 50.41 °F 29.75 in North 1 mph 7 mph 87% 0 in WeatherCatV3.04B91 W/m2
04:54 53.9 °F 49.49 °F 29.75 in NE 5 mph 9 mph 85% 0 in WeatherCatV3.04B91 W/m2
04:59 53.8 °F 48.76 °F 29.77 in Calm     83% 0 in WeatherCatV3.04B91 W/m2
05:04 53.6 °F 47.58 °F 29.77 in Calm   1 mph 80% 0 in WeatherCatV3.04B91 W/m2
05:09 53.5 °F 47.15 °F 29.77 in Calm     79% 0 in WeatherCatV3.04B91 W/m2
05:14 53.5 °F 47.15 °F 29.78 in Calm     79% 0 in WeatherCatV3.04B91 W/m2
05:19 53.3 °F 46.62 °F 29.78 in Calm   1 mph 78% 0 in WeatherCatV3.04B91 W/m2
05:24 53.1 °F 46.08 °F 29.78 in Calm     77% 0 in WeatherCatV3.04B91 W/m2
05:29 52.8 °F 45.79 °F 29.79 in Calm   4 mph 77% 0 in WeatherCatV3.04B91 W/m2
05:34 52.3 °F 44.96 °F 29.79 in Calm   4 mph 76% 0 in WeatherCatV3.04B91 W/m2
05:39 51.9 °F 44.23 °F 29.79 in ENE 2 mph 4 mph 75% 0 in WeatherCatV3.04B91 W/m2
05:44 51.6 °F 43.94 °F 29.79 in Calm   3 mph 75% 0 in WeatherCatV3.04B91 W/m2
05:49 51.3 °F 43.99 °F 29.79 in ENE 1 mph 3 mph 76% 0 in WeatherCatV3.04B91 W/m2
05:54 51 °F 43.7 °F 29.79 in Calm     76% 0 in WeatherCatV3.04B91 W/m2
05:59 50.8 °F 43.85 °F 29.80 in Calm     77% 0 in WeatherCatV3.04B91 W/m2
06:04 50.5 °F 43.56 °F 29.80 in Calm   4 mph 77% 0 in WeatherCatV3.04B91 W/m2
06:09 50.4 °F 43.46 °F 29.80 in Calm   8 mph 77% 0 in WeatherCatV3.04B91 W/m2
06:14 50.2 °F 43.61 °F 29.80 in Calm     78% 0 in WeatherCatV3.04B91 W/m2
06:19 50.2 °F 43.61 °F 29.80 in Calm   5 mph 78% 0 in WeatherCatV3.04B91 W/m2
06:24 50.1 °F 43.84 °F 29.80 in NE 1 mph 3 mph 79% 0 in WeatherCatV3.04B91 W/m2
06:29 49.9 °F 43.65 °F 29.81 in Calm   2 mph 79% 0 in WeatherCatV3.04B91 W/m2
06:34 49.9 °F 43.98 °F 29.81 in Calm     80% 0 in WeatherCatV3.04B91 W/m2
06:39 49.8 °F 43.88 °F 29.81 in Calm     80% 0 in WeatherCatV3.04B91 W/m2
06:44 49.8 °F 44.21 °F 29.81 in Calm     81% 0 in WeatherCatV3.04B91 W/m2
06:49 49.8 °F 44.21 °F 29.81 in Calm   4 mph 81% 0 in WeatherCatV3.04B91 W/m2
06:54 49.8 °F 44.53 °F 29.81 in Calm   4 mph 82% 0 in WeatherCatV3.04B91 W/m2
06:59 49.8 °F 44.53 °F 29.82 in Calm   5 mph 82% 0 in WeatherCatV3.04B91 W/m2
07:04 49.8 °F 44.53 °F 29.82 in Calm   3 mph 82% 0 in WeatherCatV3.04B91 W/m2
07:09 50.1 °F 44.82 °F 29.82 in Calm   1 mph 82% 0 in WeatherCatV3.04B91 W/m2
07:14 50.2 °F 44.6 °F 29.83 in Calm   5 mph 81% 0 in WeatherCatV3.04B91 W/m2
07:19 50.2 °F 44.27 °F 29.83 in ENE 1 mph 7 mph 80% 0 in WeatherCatV3.04B91 W/m2
07:24 50.2 °F 44.27 °F 29.83 in SE 6 mph 7 mph 80% 0 in WeatherCatV3.04B91 W/m2
07:29 50.4 °F 44.14 °F 29.83 in Calm   9 mph 79% 0 in WeatherCatV3.04B91 W/m2
07:34 50.7 °F 44.09 °F 29.83 in NNE 4 mph 5 mph 78% 0 in WeatherCatV3.04B91 W/m2
07:39 50.8 °F 43.85 °F 29.83 in Calm   5 mph 77% 0 in WeatherCatV3.04B91 W/m2
07:44 51 °F 43.7 °F 29.84 in North 6 mph 8 mph 76% 0 in WeatherCatV3.04B91 W/m2
07:49 50.8 °F 43.16 °F 29.84 in NNE 1 mph 6 mph 75% 0 in WeatherCatV3.04B91 W/m2
07:54 51 °F 43.01 °F 29.84 in ENE 2 mph 6 mph 74% 0 in WeatherCatV3.04B91 W/m2
07:59 51.4 °F 43.04 °F 29.85 in Calm   6 mph 73% 0 in WeatherCatV3.04B91 W/m2
08:04 51.6 °F 42.87 °F 29.85 in NNE 4 mph 9 mph 72% 0 in WeatherCatV3.04B91 W/m2
08:09 51.4 °F 42.32 °F 29.85 in NNE 6 mph 6 mph 71% 0 in WeatherCatV3.04B91 W/m2
08:14 51.4 °F 42.32 °F 29.85 in Calm   4 mph 71% 0 in WeatherCatV3.04B91 W/m2
08:19 51.9 °F 42.43 °F 29.85 in NE 10 mph 10 mph 70% 0 in WeatherCatV3.04B91 W/m2
08:24 52 °F 42.15 °F 29.85 in Calm   1 mph 69% 0 in WeatherCatV3.04B91 W/m2
08:29 52.5 °F 42.25 °F 29.86 in ENE 1 mph 10 mph 68% 0 in WeatherCatV3.04B91 W/m2
08:34 52.5 °F 42.25 °F 29.86 in ENE 3 mph 7 mph 68% 0 in WeatherCatV3.04B91 W/m2
08:39 52.8 °F 41.76 °F 29.86 in North 2 mph 7 mph 66% 0 in WeatherCatV3.04B91 W/m2
08:44 53.1 °F 42.04 °F 29.87 in NE 4 mph 6 mph 66% 0 in WeatherCatV3.04B91 W/m2
08:49 53.3 °F 41.84 °F 29.87 in ENE 5 mph 6 mph 65% 0 in WeatherCatV3.04B91 W/m2
08:54 53.5 °F 42.03 °F 29.87 in ENE 1 mph 10 mph 65% 0 in WeatherCatV3.04B91 W/m2
08:59 53.6 °F 42.12 °F 29.87 in Calm   6 mph 65% 0 in WeatherCatV3.04B91 W/m2
09:04 53.6 °F 41.72 °F 29.87 in NE 7 mph 11 mph 64% 0 in WeatherCatV3.04B91 W/m2
09:09 53.5 °F 41.63 °F 29.87 in Calm   10 mph 64% 0 in WeatherCatV3.04B91 W/m2
09:14 53.8 °F 41.91 °F 29.87 in North 5 mph 7 mph 64% 0 in WeatherCatV3.04B91 W/m2
09:19 54.1 °F 42.19 °F 29.87 in ENE 1 mph 5 mph 64% 0 in WeatherCatV3.04B91 W/m2
09:24 54.2 °F 42.29 °F 29.87 in ENE 4 mph 7 mph 64% 0 in WeatherCatV3.04B91 W/m2
09:29 54.4 °F 42.48 °F 29.87 in NE 2 mph 7 mph 64% 0 in WeatherCatV3.04B91 W/m2
09:34 54.5 °F 42.16 °F 29.87 in NNE 2 mph 7 mph 63% 0 in WeatherCatV3.04B91 W/m2
09:39 55 °F 43.05 °F 29.87 in East 5 mph 7 mph 64% 0 in WeatherCatV3.04B91 W/m2
09:44 55.3 °F 42.92 °F 29.88 in NE 1 mph 4 mph 63% 0 in WeatherCatV3.04B91 W/m2
09:49 55.1 °F 42.73 °F 29.88 in NNE 4 mph 11 mph 63% 0 in WeatherCatV3.04B91 W/m2
09:54 55.3 °F 42.5 °F 29.88 in Calm   9 mph 62% 0 in WeatherCatV3.04B91 W/m2
09:59 55.6 °F 43.2 °F 29.88 in NE 1 mph 5 mph 63% 0 in WeatherCatV3.04B91 W/m2
10:04 55.7 °F 42.88 °F 29.88 in NE 1 mph 10 mph 62% 0 in WeatherCatV3.04B91 W/m2
10:09 55.9 °F 43.49 °F 29.88 in ENE 2 mph 5 mph 63% 0 in WeatherCatV3.04B91 W/m2
10:14 55.9 °F 43.07 °F 29.89 in ENE 5 mph 6 mph 62% 0 in WeatherCatV3.04B91 W/m2
10:19 55.9 °F 43.49 °F 29.89 in Calm   3 mph 63% 0 in WeatherCatV3.04B91 W/m2
10:24 56 °F 43.58 °F 29.89 in ENE 5 mph 6 mph 63% 0 in WeatherCatV3.04B91 W/m2
10:29 56.2 °F 43.35 °F 29.89 in NNE 2 mph 10 mph 62% 0 in WeatherCatV3.04B91 W/m2
10:34 56.6 °F 43.73 °F 29.89 in Calm   1 mph 62% 0 in WeatherCatV3.04B91 W/m2
10:39 57.6 °F 44.68 °F 29.89 in East 1 mph 5 mph 62% 0 in WeatherCatV3.04B91 W/m2
10:44 57.8 °F 44 °F 29.89 in East 2 mph 6 mph 60% 0 in WeatherCatV3.04B91 W/m2
10:49 58.4 °F 44.57 °F 29.89 in NE 1 mph 10 mph 60% 0 in WeatherCatV3.04B91 W/m2
10:54 58.4 °F 43.68 °F 29.89 in NE 2 mph 9 mph 58% 0 in WeatherCatV3.04B91 W/m2
10:59 58 °F 43.75 °F 29.87 in Calm   9 mph 59% 0 in WeatherCatV3.04B91 W/m2
11:04 58.4 °F 44.57 °F 29.87 in North 6 mph 10 mph 60% 0 in WeatherCatV3.04B91 W/m2
11:09 58.3 °F 44.03 °F 29.87 in ENE 1 mph 10 mph 59% 0 in WeatherCatV3.04B91 W/m2
11:14 58.3 °F 44.47 °F 29.88 in NE 2 mph 7 mph 60% 0 in WeatherCatV3.04B91 W/m2
11:19 58.7 °F 44.85 °F 29.88 in NE 10 mph 11 mph 60% 0 in WeatherCatV3.04B91 W/m2
11:24 59 °F 45.13 °F 29.88 in NNE 2 mph 2 mph 60% 0 in WeatherCatV3.04B91 W/m2
11:29 59.5 °F 44.25 °F 29.88 in NNE 7 mph 10 mph 57% 0 in WeatherCatV3.04B91 W/m2
11:34 60.1 °F 45.72 °F 29.88 in East 5 mph 10 mph 59% 0 in WeatherCatV3.04B91 W/m2
11:39 60.1 °F 44.81 °F 29.88 in East 5 mph 5 mph 57% 0 in WeatherCatV3.04B91 W/m2
11:44 60.5 °F 45.65 °F 29.88 in Calm   6 mph 58% 0 in WeatherCatV3.04B91 W/m2
11:49 60.9 °F 45.09 °F 29.88 in ENE 4 mph 9 mph 56% 0 in WeatherCatV3.04B91 W/m2
11:54 60.5 °F 45.19 °F 29.88 in Calm   7 mph 57% 0 in WeatherCatV3.04B91 W/m2
11:59 60.7 °F 44.91 °F 29.87 in NE 4 mph 9 mph 56% 0 in WeatherCatV3.04B91 W/m2
12:04 60.9 °F 45.56 °F 29.87 in NNE 2 mph 6 mph 57% 0 in WeatherCatV3.04B91 W/m2
12:09 61.3 °F 44.99 °F 29.87 in East 3 mph 9 mph 55% 0 in WeatherCatV3.04B91 W/m2
12:14 61.3 °F 44.99 °F 29.88 in Calm   7 mph 55% 0 in WeatherCatV3.04B91 W/m2
12:19 61.3 °F 44.99 °F 29.88 in Calm   7 mph 55% 0 in WeatherCatV3.04B91 W/m2
12:24 61.6 °F 45.27 °F 29.88 in NE 5 mph 7 mph 55% 0 in WeatherCatV3.04B91 W/m2
12:29 61.6 °F 45.27 °F 29.87 in NE 5 mph 7 mph 55% 0 in WeatherCatV3.04B91 W/m2
12:34 62.1 °F 47.14 °F 29.87 in Calm   7 mph 58% 0 in WeatherCatV3.04B91 W/m2
12:39 62.1 °F 45.74 °F 29.87 in Calm   9 mph 55% 0 in WeatherCatV3.04B91 W/m2
12:44 62.1 °F 46.21 °F 29.85 in Calm   10 mph 56% 0 in WeatherCatV3.04B91 W/m2
12:49 62.7 °F 46.77 °F 29.85 in ENE 2 mph 11 mph 56% 0 in WeatherCatV3.04B91 W/m2
12:54 63.2 °F 46.76 °F 29.85 in Calm   7 mph 55% 0 in WeatherCatV3.04B91 W/m2
12:59 63.1 °F 46.67 °F 29.85 in NE 5 mph 7 mph 55% 0 in WeatherCatV3.04B91 W/m2
13:04 63.2 °F 47.24 °F 29.85 in ENE 5 mph 7 mph 56% 0 in WeatherCatV3.04B91 W/m2
13:09 63.4 °F 47.42 °F 29.85 in Calm   3 mph 56% 0 in WeatherCatV3.04B91 W/m2
13:14 64 °F 47.98 °F 29.85 in Calm   3 mph 56% 0 in WeatherCatV3.04B91 W/m2
13:19 64.2 °F 47.69 °F 29.85 in NE 4 mph 6 mph 55% 0 in WeatherCatV3.04B91 W/m2
13:24 64.2 °F 47.2 °F 29.85 in Calm   1 mph 54% 0 in WeatherCatV3.04B91 W/m2
13:29 63.9 °F 46.92 °F 29.85 in NE 3 mph 8 mph 54% 0 in WeatherCatV3.04B91 W/m2
13:34 63.7 °F 46.74 °F 29.85 in NE 1 mph 8 mph 54% 0 in WeatherCatV3.04B91 W/m2
13:39 63.9 °F 47.41 °F 29.85 in Calm     55% 0 in WeatherCatV3.04B91 W/m2
13:44 64 °F 47.02 °F 29.85 in Calm   5 mph 54% 0 in WeatherCatV3.04B91 W/m2
13:49 64 °F 47.5 °F 29.85 in Calm   5 mph 55% 0 in WeatherCatV3.04B91 W/m2
13:54 64.2 °F 47.2 °F 29.85 in Calm   5 mph 54% 0 in WeatherCatV3.04B91 W/m2
13:59 63.9 °F 46.92 °F 29.86 in Calm   1 mph 54% 0 in WeatherCatV3.04B91 W/m2
14:04 63.9 °F 46.92 °F 29.86 in Calm   3 mph 54% 0 in WeatherCatV3.04B91 W/m2
14:09 63.7 °F 47.22 °F 29.86 in NE 4 mph 4 mph 55% 0 in WeatherCatV3.04B91 W/m2
14:14 63.7 °F 46.74 °F 29.86 in ENE 1 mph 3 mph 54% 0 in WeatherCatV3.04B91 W/m2
14:19 63.7 °F 47.22 °F 29.86 in ENE 3 mph 3 mph 55% 0 in WeatherCatV3.04B91 W/m2
14:24 63.7 °F 47.22 °F 29.86 in NNE 7 mph 7 mph 55% 0 in WeatherCatV3.04B91 W/m2
14:29 63.7 °F 47.22 °F 29.89 in NNE 2 mph 3 mph 55% 0 in WeatherCatV3.04B91 W/m2
14:34 63.5 °F 47.52 °F 29.89 in Calm   5 mph 56% 0 in WeatherCatV3.04B91 W/m2
14:39 63.4 °F 47.9 °F 29.89 in Calm   6 mph 57% 0 in WeatherCatV3.04B91 W/m2
14:44 63.2 °F 48.63 °F 29.88 in Calm   1 mph 59% 0 in WeatherCatV3.04B91 W/m2
14:49 62.9 °F 48.8 °F 29.88 in NE 4 mph 7 mph 60% 0 in WeatherCatV3.04B91 W/m2
14:54 62.4 °F 49.2 °F 29.88 in ENE 2 mph 4 mph 62% 0 in WeatherCatV3.04B91 W/m2
14:59 62.1 °F 49.35 °F 29.88 in NNW 5 mph 7 mph 63% 0 in WeatherCatV3.04B91 W/m2
15:04 61.5 °F 49.2 °F 29.88 in NE 6 mph 6 mph 64% 0 in WeatherCatV3.04B91 W/m2
15:09 60.7 °F 48.45 °F 29.88 in North 4 mph 7 mph 64% 0 in WeatherCatV3.04B91 W/m2
15:14 60.1 °F 48.7 °F 29.89 in Calm   7 mph 66% 0 in WeatherCatV3.04B91 W/m2
15:19 59.6 °F 48.63 °F 29.89 in Calm   4 mph 67% 0 in WeatherCatV3.04B91 W/m2
15:24 59.2 °F 49.03 °F 29.89 in NE 3 mph 6 mph 69% 0 in WeatherCatV3.04B91 W/m2
15:29 58.6 °F 48.84 °F 29.89 in ENE 5 mph 5 mph 70% 0.07 in WeatherCatV3.04B91 W/m2
15:34 58 °F 49.02 °F 29.89 in Calm   4 mph 72% 0.19 in WeatherCatV3.04B91 W/m2
15:39 57.3 °F 49.08 °F 29.89 in NNE 4 mph 7 mph 74% 0.14 in WeatherCatV3.04B91 W/m2
15:44 56.7 °F 49.57 °F 29.89 in Calm   2 mph 77% 0.16 in WeatherCatV3.04B91 W/m2
15:49 56.3 °F 49.87 °F 29.89 in Calm   5 mph 79% 0.11 in WeatherCatV3.04B91 W/m2
15:54 55.7 °F 49.62 °F 29.89 in Calm   5 mph 80% 0.24 in WeatherCatV3.04B91 W/m2
15:59 55.4 °F 50 °F 29.89 in Calm   2 mph 82% 0.2 in WeatherCatV3.04B91 W/m2
16:04 55.1 °F 50.03 °F 29.89 in Calm     83% 0.3 in WeatherCatV3.04B91 W/m2
16:09 55 °F 50.25 °F 29.89 in Calm     84% 0.22 in WeatherCatV3.04B91 W/m2
16:14 54.8 °F 50.38 °F 29.91 in Calm     85% 0.33 in WeatherCatV3.04B91 W/m2
16:19 54.7 °F 50.59 °F 29.91 in Calm     86% 0.21 in WeatherCatV3.04B91 W/m2
16:24 54.5 °F 50.71 °F 29.91 in Calm     87% 0.14 in WeatherCatV3.04B91 W/m2
16:29 54.5 °F 51.02 °F 29.91 in Calm     88% 0.06 in WeatherCatV3.04B91 W/m2
16:34 54.5 °F 51.32 °F 29.91 in Calm     89% 0.05 in WeatherCatV3.04B91 W/m2
16:39 54.4 °F 51.22 °F 29.91 in Calm   2 mph 89% 0.05 in WeatherCatV3.04B91 W/m2
16:44 54.4 °F 51.22 °F 29.90 in Calm     89% 0.08 in WeatherCatV3.04B91 W/m2
16:49 54.2 °F 51.33 °F 29.90 in Calm   3 mph 90% 0.11 in WeatherCatV3.04B91 W/m2
16:54 54.1 °F 51.23 °F 29.90 in Calm   5 mph 90% 0.07 in WeatherCatV3.04B91 W/m2
16:59 54.1 °F 51.23 °F 29.90 in NNE 1 mph 4 mph 90% 0.07 in WeatherCatV3.04B91 W/m2
17:04 54.1 °F 51.23 °F 29.90 in Calm     90% 0.06 in WeatherCatV3.04B91 W/m2
17:09 53.9 °F 51.33 °F 29.90 in Calm     91% 0.04 in WeatherCatV3.04B91 W/m2
17:14 54.1 °F 51.53 °F 29.92 in Calm     91% 0.12 in WeatherCatV3.04B91 W/m2
17:19 53.9 °F 51.33 °F 29.92 in Calm   4 mph 91% 0.12 in WeatherCatV3.04B91 W/m2
17:24 53.9 °F 51.33 °F 29.92 in Calm     91% 0.14 in WeatherCatV3.04B91 W/m2
17:29 53.8 °F 51.23 °F 29.91 in Calm     91% 0.16 in WeatherCatV3.04B91 W/m2
17:34 53.6 °F 51.04 °F 29.91 in Calm   1 mph 91% 0.14 in WeatherCatV3.04B91 W/m2
17:39 53.6 °F 51.04 °F 29.91 in NE 1 mph 1 mph 91% 0.1 in WeatherCatV3.04B91 W/m2
17:44 53.5 °F 51.23 °F 29.90 in Calm   2 mph 92% 0.1 in WeatherCatV3.04B91 W/m2
17:49 53.5 °F 51.23 °F 29.90 in Calm     92% 0.16 in WeatherCatV3.04B91 W/m2
17:54 53.3 °F 51.03 °F 29.90 in Calm   1 mph 92% 0.09 in WeatherCatV3.04B91 W/m2
17:59 53.3 °F 51.03 °F 29.89 in Calm   4 mph 92% 0.07 in WeatherCatV3.04B91 W/m2
18:04 53.3 °F 51.33 °F 29.89 in Calm   3 mph 93% 0.07 in WeatherCatV3.04B91 W/m2
18:09 53.3 °F 51.33 °F 29.89 in Calm     93% 0.05 in WeatherCatV3.04B91 W/m2
18:14 53.3 °F 51.33 °F 29.88 in Calm     93% 0 in WeatherCatV3.04B91 W/m2
18:19 53.3 °F 51.33 °F 29.88 in Calm     93% 0 in WeatherCatV3.04B91 W/m2
18:24 53.3 °F 51.33 °F 29.88 in Calm     93% 0 in WeatherCatV3.04B91 W/m2
18:29 53.3 °F 51.33 °F 29.88 in Calm     93% 0 in WeatherCatV3.04B91 W/m2
18:34 53.5 °F 51.52 °F 29.88 in Calm     93% 0 in WeatherCatV3.04B91 W/m2
18:39 53.6 °F 51.91 °F 29.88 in ENE 1 mph 2 mph 94% 0 in WeatherCatV3.04B91 W/m2
18:44 53.8 °F 52.11 °F 29.86 in Calm     94% 0 in WeatherCatV3.04B91 W/m2
18:49 53.9 °F 52.21 °F 29.86 in Calm     94% 0 in WeatherCatV3.04B91 W/m2
18:54 54.1 °F 52.41 °F 29.86 in Calm   6 mph 94% 0 in WeatherCatV3.04B91 W/m2
18:59 54.2 °F 52.51 °F 29.86 in Calm   2 mph 94% 0 in WeatherCatV3.04B91 W/m2
19:04 54.4 °F 52.71 °F 29.86 in Calm   7 mph 94% 0 in WeatherCatV3.04B91 W/m2
19:09 54.5 °F 52.81 °F 29.86 in Calm   5 mph 94% 0 in WeatherCatV3.04B91 W/m2
19:14 54.7 °F 53.01 °F 29.86 in Calm     94% 0 in WeatherCatV3.04B91 W/m2
19:19 54.5 °F 52.52 °F 29.86 in Calm     93% 0 in WeatherCatV3.04B91 W/m2
19:24 54.5 °F 52.52 °F 29.86 in ENE 3 mph 4 mph 93% 0 in WeatherCatV3.04B91 W/m2
19:29 54.5 °F 52.52 °F 29.87 in ENE 1 mph 2 mph 93% 0 in WeatherCatV3.04B91 W/m2
19:34 54.5 °F 52.52 °F 29.87 in Calm     93% 0 in WeatherCatV3.04B91 W/m2
19:39 54.5 °F 52.52 °F 29.87 in Calm   5 mph 93% 0 in WeatherCatV3.04B91 W/m2
19:44 54.5 °F 52.52 °F 29.88 in Calm   5 mph 93% 0 in WeatherCatV3.04B91 W/m2
19:49 54.7 °F 52.71 °F 29.88 in Calm     93% 0 in WeatherCatV3.04B91 W/m2
19:54 54.7 °F 52.42 °F 29.88 in Calm   3 mph 92% 0 in WeatherCatV3.04B91 W/m2
19:59 54.7 °F 52.42 °F 29.88 in Calm     92% 0 in WeatherCatV3.04B91 W/m2
20:04 54.5 °F 52.22 °F 29.88 in Calm     92% 0 in WeatherCatV3.04B91 W/m2
20:09 54.5 °F 52.22 °F 29.88 in Calm     92% 0 in WeatherCatV3.04B91 W/m2
20:14 54.5 °F 52.22 °F 29.89 in Calm     92% 0 in WeatherCatV3.04B91 W/m2
20:19 54.5 °F 52.22 °F 29.89 in Calm     92% 0 in WeatherCatV3.04B91 W/m2
20:24 54.5 °F 52.22 °F 29.89 in Calm     92% 0 in WeatherCatV3.04B91 W/m2
20:29 54.5 °F 52.22 °F 29.90 in Calm     92% 0 in WeatherCatV3.04B91 W/m2
20:34 54.5 °F 52.22 °F 29.90 in Calm   3 mph 92% 0 in WeatherCatV3.04B91 W/m2
20:39 54.5 °F 52.22 °F 29.90 in Calm     92% 0 in WeatherCatV3.04B91 W/m2
20:44 54.5 °F 52.22 °F 29.90 in Calm   3 mph 92% 0 in WeatherCatV3.04B91 W/m2
20:49 54.4 °F 52.12 °F 29.90 in Calm   4 mph 92% 0 in WeatherCatV3.04B91 W/m2
20:54 54.4 °F 51.83 °F 29.90 in NNE 1 mph 2 mph 91% 0 in WeatherCatV3.04B91 W/m2
20:59 54.2 °F 51.63 °F 29.90 in Calm     91% 0 in WeatherCatV3.04B91 W/m2
21:04 54.2 °F 51.63 °F 29.90 in NE 2 mph 2 mph 91% 0 in WeatherCatV3.04B91 W/m2
21:09 54.4 °F 51.83 °F 29.90 in NNE 4 mph 6 mph 91% 0 in WeatherCatV3.04B91 W/m2
21:14 54.2 °F 51.63 °F 29.90 in ENE 5 mph 7 mph 91% 0 in WeatherCatV3.04B91 W/m2
21:19 53.9 °F 51.33 °F 29.90 in North 4 mph 6 mph 91% 0 in WeatherCatV3.04B91 W/m2
21:24 53.6 °F 51.04 °F 29.90 in NE 3 mph 6 mph 91% 0 in WeatherCatV3.04B91 W/m2
21:29 53.3 °F 50.74 °F 29.91 in North 3 mph 10 mph 91% 0 in WeatherCatV3.04B91 W/m2
21:34 53.1 °F 50.24 °F 29.91 in North 7 mph 12 mph 90% 0 in WeatherCatV3.04B91 W/m2
21:39 53.1 °F 50.24 °F 29.91 in East 4 mph 6 mph 90% 0 in WeatherCatV3.04B91 W/m2
21:44 52.9 °F 50.05 °F 29.93 in NNE 2 mph 9 mph 90% 0 in WeatherCatV3.04B91 W/m2
21:49 52.9 °F 50.05 °F 29.93 in ENE 4 mph 10 mph 90% 0 in WeatherCatV3.04B91 W/m2
21:54 52.9 °F 50.05 °F 29.93 in NE 2 mph 5 mph 90% 0 in WeatherCatV3.04B91 W/m2
21:59 52.9 °F 49.75 °F 29.93 in Calm   9 mph 89% 0 in WeatherCatV3.04B91 W/m2
22:04 52.9 °F 49.75 °F 29.93 in Calm   5 mph 89% 0 in WeatherCatV3.04B91 W/m2
22:09 52.9 °F 49.44 °F 29.93 in ENE 2 mph 4 mph 88% 0 in WeatherCatV3.04B91 W/m2
22:14 52.9 °F 49.44 °F 29.93 in Calm   9 mph 88% 0 in WeatherCatV3.04B91 W/m2
22:19 52.9 °F 49.14 °F 29.93 in Calm   7 mph 87% 0 in WeatherCatV3.04B91 W/m2
22:24 52.8 °F 49.04 °F 29.93 in ENE 2 mph 5 mph 87% 0 in WeatherCatV3.04B91 W/m2
22:29 52.8 °F 49.04 °F 29.92 in Calm   4 mph 87% 0 in WeatherCatV3.04B91 W/m2
22:34 52.8 °F 49.04 °F 29.92 in NE 4 mph 4 mph 87% 0 in WeatherCatV3.04B91 W/m2
22:39 52.6 °F 48.53 °F 29.92 in ENE 4 mph 5 mph 86% 0 in WeatherCatV3.04B91 W/m2
22:44 52.6 °F 48.53 °F 29.91 in NE 1 mph 4 mph 86% 0 in WeatherCatV3.04B91 W/m2
22:49 52.6 °F 48.53 °F 29.91 in NE 2 mph 4 mph 86% 0 in WeatherCatV3.04B91 W/m2
22:54 52.5 °F 48.43 °F 29.91 in Calm   5 mph 86% 0 in WeatherCatV3.04B91 W/m2
22:59 52.5 °F 48.43 °F 29.91 in NNE 4 mph 6 mph 86% 0 in WeatherCatV3.04B91 W/m2
23:04 52.5 °F 48.43 °F 29.91 in Calm   5 mph 86% 0 in WeatherCatV3.04B91 W/m2
23:09 52.5 °F 48.12 °F 29.91 in Calm     85% 0 in WeatherCatV3.04B91 W/m2
23:14 52.6 °F 48.22 °F 29.91 in Calm     85% 0 in WeatherCatV3.04B91 W/m2
23:19 52.8 °F 48.42 °F 29.91 in Calm     85% 0 in WeatherCatV3.04B91 W/m2
23:24 52.9 °F 48.2 °F 29.91 in NE 1 mph 1 mph 84% 0 in WeatherCatV3.04B91 W/m2
23:29 52.9 °F 47.88 °F 29.91 in Calm   3 mph 83% 0 in WeatherCatV3.04B91 W/m2
23:34 53.1 °F 47.75 °F 29.91 in ENE 4 mph 6 mph 82% 0 in WeatherCatV3.04B91 W/m2
23:39 53.2 °F 47.85 °F 29.91 in ENE 2 mph 9 mph 82% 0 in WeatherCatV3.04B91 W/m2
23:44 53.2 °F 47.52 °F 29.91 in NE 2 mph 2 mph 81% 0 in WeatherCatV3.04B91 W/m2
23:49 53.2 °F 47.52 °F 29.91 in ENE 5 mph 5 mph 81% 0 in WeatherCatV3.04B91 W/m2
23:54 53.3 °F 47.29 °F 29.91 in ENE 3 mph 7 mph 80% 0 in WeatherCatV3.04B91 W/m2
23:59 53.3 °F 47.29 °F 29.91 in East 5 mph 5 mph 80% 0 in WeatherCatV3.04B91 W/m2
Bellevue, Nebraska, USA
Compliments of Weather Underground - 3.25 mb